sensor_id;sensor_type;location;lat;lon;timestamp;P1;durP1;ratioP1;P2;durP2;ratioP2
75512;SDS011;64090;49.770;18.760;2023-05-10T00:00:01;3.60;;;1.80;;
75512;SDS011;64090;49.770;18.760;2023-05-10T00:03:24;2.50;;;1.70;;
75512;SDS011;64090;49.770;18.760;2023-05-10T00:06:27;3.20;;;1.80;;
75512;SDS011;64090;49.770;18.760;2023-05-10T00:09:30;3.60;;;2.70;;
75512;SDS011;64090;49.770;18.760;2023-05-10T00:12:33;4.10;;;2.00;;
75512;SDS011;64090;49.770;18.760;2023-05-10T00:15:36;3.60;;;2.20;;
75512;SDS011;64090;49.770;18.760;2023-05-10T00:18:39;3.50;;;2.50;;
75512;SDS011;64090;49.770;18.760;2023-05-10T00:21:42;4.90;;;2.30;;
75512;SDS011;64090;49.770;18.760;2023-05-10T00:24:45;3.10;;;2.40;;
75512;SDS011;64090;49.770;18.760;2023-05-10T00:27:48;4.20;;;2.40;;
75512;SDS011;64090;49.770;18.760;2023-05-10T00:30:51;5.00;;;3.30;;
75512;SDS011;64090;49.770;18.760;2023-05-10T00:33:54;3.70;;;2.70;;
75512;SDS011;64090;49.770;18.760;2023-05-10T00:36:58;3.90;;;2.20;;
75512;SDS011;64090;49.770;18.760;2023-05-10T00:40:00;4.60;;;3.30;;
75512;SDS011;64090;49.770;18.760;2023-05-10T00:43:03;4.50;;;2.30;;
75512;SDS011;64090;49.770;18.760;2023-05-10T00:46:06;4.10;;;3.00;;
75512;SDS011;64090;49.770;18.760;2023-05-10T00:49:10;4.80;;;3.00;;
75512;SDS011;64090;49.770;18.760;2023-05-10T00:52:13;3.60;;;2.10;;
75512;SDS011;64090;49.770;18.760;2023-05-10T00:55:16;3.20;;;2.10;;
75512;SDS011;64090;49.770;18.760;2023-05-10T00:58:20;2.80;;;1.70;;
75512;SDS011;64090;49.770;18.760;2023-05-10T01:01:23;5.80;;;2.00;;
75512;SDS011;64090;49.770;18.760;2023-05-10T01:04:26;2.80;;;1.80;;
75512;SDS011;64090;49.770;18.760;2023-05-10T01:07:30;3.30;;;2.10;;
75512;SDS011;64090;49.770;18.760;2023-05-10T01:10:32;2.60;;;1.80;;
75512;SDS011;64090;49.770;18.760;2023-05-10T01:13:36;3.10;;;1.90;;
75512;SDS011;64090;49.770;18.760;2023-05-10T01:16:41;2.50;;;1.50;;
75512;SDS011;64090;49.770;18.760;2023-05-10T01:19:46;2.40;;;1.70;;
75512;SDS011;64090;49.770;18.760;2023-05-10T01:33:19;3.80;;;1.90;;
75512;SDS011;64090;49.770;18.760;2023-05-10T01:42:48;2.20;;;1.50;;
75512;SDS011;64090;49.770;18.760;2023-05-10T01:46:09;2.50;;;1.60;;
75512;SDS011;64090;49.770;18.760;2023-05-10T01:49:20;3.70;;;1.80;;
75512;SDS011;64090;49.770;18.760;2023-05-10T01:55:39;3.80;;;1.90;;
75512;SDS011;64090;49.770;18.760;2023-05-10T01:58:48;3.90;;;2.40;;
75512;SDS011;64090;49.770;18.760;2023-05-10T02:01:53;2.50;;;1.50;;
75512;SDS011;64090;49.770;18.760;2023-05-10T02:04:57;2.80;;;1.50;;
75512;SDS011;64090;49.770;18.760;2023-05-10T02:08:02;3.70;;;1.90;;
75512;SDS011;64090;49.770;18.760;2023-05-10T02:11:08;2.20;;;1.50;;
75512;SDS011;64090;49.770;18.760;2023-05-10T02:14:15;4.80;;;2.10;;
75512;SDS011;64090;49.770;18.760;2023-05-10T02:17:19;4.30;;;2.00;;
75512;SDS011;64090;49.770;18.760;2023-05-10T02:20:23;2.60;;;2.10;;
75512;SDS011;64090;49.770;18.760;2023-05-10T02:23:27;3.20;;;2.20;;
75512;SDS011;64090;49.770;18.760;2023-05-10T02:26:32;3.10;;;1.70;;
75512;SDS011;64090;49.770;18.760;2023-05-10T02:29:37;4.00;;;1.60;;
75512;SDS011;64090;49.770;18.760;2023-05-10T02:32:41;2.20;;;1.70;;
75512;SDS011;64090;49.770;18.760;2023-05-10T02:35:45;3.60;;;1.90;;
75512;SDS011;64090;49.770;18.760;2023-05-10T02:38:49;3.10;;;2.10;;
75512;SDS011;64090;49.770;18.760;2023-05-10T02:41:54;3.40;;;1.90;;
75512;SDS011;64090;49.770;18.760;2023-05-10T02:45:02;3.50;;;2.20;;
75512;SDS011;64090;49.770;18.760;2023-05-10T02:48:09;4.50;;;2.50;;
75512;SDS011;64090;49.770;18.760;2023-05-10T02:51:13;2.60;;;1.70;;
75512;SDS011;64090;49.770;18.760;2023-05-10T02:54:22;4.80;;;2.10;;
75512;SDS011;64090;49.770;18.760;2023-05-10T02:57:31;3.40;;;1.90;;
75512;SDS011;64090;49.770;18.760;2023-05-10T03:00:36;3.20;;;2.00;;
75512;SDS011;64090;49.770;18.760;2023-05-10T03:03:39;3.70;;;2.50;;
75512;SDS011;64090;49.770;18.760;2023-05-10T03:06:42;4.10;;;2.10;;
75512;SDS011;64090;49.770;18.760;2023-05-10T03:10:03;2.90;;;1.80;;
75512;SDS011;64090;49.770;18.760;2023-05-10T03:13:13;4.00;;;2.20;;
75512;SDS011;64090;49.770;18.760;2023-05-10T03:16:32;4.80;;;2.20;;
75512;SDS011;64090;49.770;18.760;2023-05-10T03:20:06;4.30;;;2.20;;
75512;SDS011;64090;49.770;18.760;2023-05-10T03:26:43;2.50;;;1.60;;
75512;SDS011;64090;49.770;18.760;2023-05-10T03:29:48;4.10;;;2.10;;
75512;SDS011;64090;49.770;18.760;2023-05-10T03:32:53;3.60;;;2.30;;
75512;SDS011;64090;49.770;18.760;2023-05-10T03:35:56;4.00;;;2.20;;
75512;SDS011;64090;49.770;18.760;2023-05-10T03:38:59;4.80;;;2.90;;
75512;SDS011;64090;49.770;18.760;2023-05-10T03:42:02;5.10;;;2.90;;
75512;SDS011;64090;49.770;18.760;2023-05-10T03:45:05;3.70;;;2.70;;
75512;SDS011;64090;49.770;18.760;2023-05-10T03:48:08;3.90;;;2.60;;
75512;SDS011;64090;49.770;18.760;2023-05-10T03:51:11;4.80;;;3.10;;
75512;SDS011;64090;49.770;18.760;2023-05-10T03:54:14;3.60;;;2.20;;
75512;SDS011;64090;49.770;18.760;2023-05-10T03:57:17;3.20;;;2.70;;
75512;SDS011;64090;49.770;18.760;2023-05-10T04:00:20;3.20;;;2.50;;
75512;SDS011;64090;49.770;18.760;2023-05-10T04:03:22;4.40;;;2.40;;
75512;SDS011;64090;49.770;18.760;2023-05-10T04:06:26;4.30;;;3.10;;
75512;SDS011;64090;49.770;18.760;2023-05-10T04:09:28;3.60;;;2.50;;
75512;SDS011;64090;49.770;18.760;2023-05-10T04:12:31;2.30;;;1.80;;
75512;SDS011;64090;49.770;18.760;2023-05-10T04:15:34;3.10;;;2.10;;
75512;SDS011;64090;49.770;18.760;2023-05-10T04:18:38;3.30;;;2.20;;
75512;SDS011;64090;49.770;18.760;2023-05-10T04:21:42;5.20;;;3.10;;
75512;SDS011;64090;49.770;18.760;2023-05-10T04:24:44;4.50;;;2.30;;
75512;SDS011;64090;49.770;18.760;2023-05-10T04:27:47;5.40;;;2.70;;
75512;SDS011;64090;49.770;18.760;2023-05-10T04:30:50;4.00;;;2.50;;
75512;SDS011;64090;49.770;18.760;2023-05-10T04:33:53;3.30;;;2.00;;
75512;SDS011;64090;49.770;18.760;2023-05-10T04:36:56;3.70;;;2.30;;
75512;SDS011;64090;49.770;18.760;2023-05-10T04:39:59;3.40;;;2.30;;
75512;SDS011;64090;49.770;18.760;2023-05-10T04:43:02;2.60;;;1.80;;
75512;SDS011;64090;49.770;18.760;2023-05-10T04:46:05;3.50;;;2.40;;
75512;SDS011;64090;49.770;18.760;2023-05-10T04:49:08;3.00;;;2.10;;
75512;SDS011;64090;49.770;18.760;2023-05-10T04:52:12;2.90;;;1.70;;
75512;SDS011;64090;49.770;18.760;2023-05-10T04:55:15;3.50;;;1.90;;
75512;SDS011;64090;49.770;18.760;2023-05-10T04:58:18;3.20;;;2.40;;
75512;SDS011;64090;49.770;18.760;2023-05-10T05:01:21;3.40;;;2.00;;
75512;SDS011;64090;49.770;18.760;2023-05-10T05:04:25;3.70;;;2.20;;
75512;SDS011;64090;49.770;18.760;2023-05-10T05:07:28;2.70;;;1.90;;
75512;SDS011;64090;49.770;18.760;2023-05-10T05:10:32;4.00;;;2.20;;
75512;SDS011;64090;49.770;18.760;2023-05-10T05:13:35;2.90;;;2.50;;
75512;SDS011;64090;49.770;18.760;2023-05-10T05:16:38;2.70;;;1.90;;
75512;SDS011;64090;49.770;18.760;2023-05-10T05:19:41;2.00;;;1.40;;
75512;SDS011;64090;49.770;18.760;2023-05-10T05:22:44;3.40;;;1.70;;
75512;SDS011;64090;49.770;18.760;2023-05-10T05:25:47;3.20;;;1.70;;
75512;SDS011;64090;49.770;18.760;2023-05-10T05:28:50;3.20;;;2.20;;
75512;SDS011;64090;49.770;18.760;2023-05-10T05:31:56;2.50;;;1.60;;
75512;SDS011;64090;49.770;18.760;2023-05-10T05:34:59;2.80;;;2.40;;
75512;SDS011;64090;49.770;18.760;2023-05-10T05:38:01;2.30;;;1.60;;
75512;SDS011;64090;49.770;18.760;2023-05-10T05:41:04;3.40;;;2.30;;
75512;SDS011;64090;49.770;18.760;2023-05-10T05:44:07;2.90;;;1.70;;
75512;SDS011;64090;49.770;18.760;2023-05-10T05:47:10;2.80;;;1.50;;
75512;SDS011;64090;49.770;18.760;2023-05-10T05:50:13;2.20;;;1.50;;
75512;SDS011;64090;49.770;18.760;2023-05-10T05:53:16;2.90;;;2.00;;
75512;SDS011;64090;49.770;18.760;2023-05-10T05:56:19;2.70;;;1.70;;
75512;SDS011;64090;49.770;18.760;2023-05-10T05:59:26;3.40;;;2.10;;
75512;SDS011;64090;49.770;18.760;2023-05-10T06:02:30;2.60;;;1.50;;
75512;SDS011;64090;49.770;18.760;2023-05-10T06:05:33;2.60;;;1.80;;
75512;SDS011;64090;49.770;18.760;2023-05-10T06:08:36;3.10;;;2.00;;
75512;SDS011;64090;49.770;18.760;2023-05-10T06:11:38;2.80;;;2.00;;
75512;SDS011;64090;49.770;18.760;2023-05-10T06:14:41;3.30;;;2.00;;
75512;SDS011;64090;49.770;18.760;2023-05-10T06:17:44;2.60;;;1.70;;
75512;SDS011;64090;49.770;18.760;2023-05-10T06:20:47;2.90;;;1.70;;
75512;SDS011;64090;49.770;18.760;2023-05-10T06:23:50;2.70;;;1.70;;
75512;SDS011;64090;49.770;18.760;2023-05-10T06:26:52;3.40;;;2.10;;
75512;SDS011;64090;49.770;18.760;2023-05-10T06:29:55;2.60;;;1.70;;
75512;SDS011;64090;49.770;18.760;2023-05-10T06:33:14;3.80;;;1.60;;
75512;SDS011;64090;49.770;18.760;2023-05-10T06:36:18;2.70;;;1.80;;
75512;SDS011;64090;49.770;18.760;2023-05-10T06:39:21;3.20;;;1.50;;
75512;SDS011;64090;49.770;18.760;2023-05-10T06:42:23;2.70;;;1.90;;
75512;SDS011;64090;49.770;18.760;2023-05-10T06:45:27;3.10;;;1.80;;
75512;SDS011;64090;49.770;18.760;2023-05-10T06:48:30;5.90;;;2.00;;
75512;SDS011;64090;49.770;18.760;2023-05-10T06:51:33;3.80;;;2.20;;
75512;SDS011;64090;49.770;18.760;2023-05-10T06:54:36;3.00;;;1.50;;
75512;SDS011;64090;49.770;18.760;2023-05-10T06:57:39;2.30;;;1.60;;
75512;SDS011;64090;49.770;18.760;2023-05-10T07:00:41;3.50;;;2.00;;
75512;SDS011;64090;49.770;18.760;2023-05-10T07:03:46;5.30;;;1.70;;
75512;SDS011;64090;49.770;18.760;2023-05-10T07:06:49;2.20;;;1.40;;
75512;SDS011;64090;49.770;18.760;2023-05-10T07:09:52;3.40;;;1.90;;
75512;SDS011;64090;49.770;18.760;2023-05-10T07:12:55;2.20;;;1.50;;
75512;SDS011;64090;49.770;18.760;2023-05-10T07:15:58;2.70;;;1.70;;
75512;SDS011;64090;49.770;18.760;2023-05-10T07:19:02;2.70;;;1.70;;
75512;SDS011;64090;49.770;18.760;2023-05-10T07:22:05;2.50;;;1.70;;
75512;SDS011;64090;49.770;18.760;2023-05-10T07:25:07;2.70;;;1.80;;
75512;SDS011;64090;49.770;18.760;2023-05-10T07:28:11;2.50;;;1.60;;
75512;SDS011;64090;49.770;18.760;2023-05-10T07:31:13;2.60;;;1.50;;
75512;SDS011;64090;49.770;18.760;2023-05-10T07:34:16;2.80;;;1.60;;
75512;SDS011;64090;49.770;18.760;2023-05-10T07:37:19;2.50;;;1.70;;
75512;SDS011;64090;49.770;18.760;2023-05-10T07:40:22;2.40;;;1.70;;
75512;SDS011;64090;49.770;18.760;2023-05-10T07:43:25;2.10;;;1.30;;
75512;SDS011;64090;49.770;18.760;2023-05-10T07:46:28;2.90;;;1.60;;
75512;SDS011;64090;49.770;18.760;2023-05-10T07:49:31;4.80;;;1.60;;
75512;SDS011;64090;49.770;18.760;2023-05-10T07:52:33;2.50;;;2.10;;
75512;SDS011;64090;49.770;18.760;2023-05-10T07:55:36;3.40;;;2.00;;
75512;SDS011;64090;49.770;18.760;2023-05-10T07:58:39;3.30;;;2.00;;
75512;SDS011;64090;49.770;18.760;2023-05-10T08:01:42;2.50;;;1.70;;
75512;SDS011;64090;49.770;18.760;2023-05-10T08:04:46;2.60;;;1.70;;
75512;SDS011;64090;49.770;18.760;2023-05-10T08:07:49;3.20;;;2.00;;
75512;SDS011;64090;49.770;18.760;2023-05-10T08:10:52;3.10;;;1.50;;
75512;SDS011;64090;49.770;18.760;2023-05-10T08:13:57;1.60;;;1.00;;
75512;SDS011;64090;49.770;18.760;2023-05-10T08:17:01;2.80;;;1.70;;
75512;SDS011;64090;49.770;18.760;2023-05-10T08:20:04;2.50;;;1.50;;
75512;SDS011;64090;49.770;18.760;2023-05-10T08:23:26;3.00;;;1.70;;
75512;SDS011;64090;49.770;18.760;2023-05-10T08:26:30;2.40;;;1.60;;
75512;SDS011;64090;49.770;18.760;2023-05-10T08:29:34;1.90;;;1.70;;
75512;SDS011;64090;49.770;18.760;2023-05-10T08:32:51;2.90;;;1.60;;
75512;SDS011;64090;49.770;18.760;2023-05-10T08:35:57;2.80;;;1.70;;
75512;SDS011;64090;49.770;18.760;2023-05-10T08:39:01;3.40;;;1.90;;
75512;SDS011;64090;49.770;18.760;2023-05-10T08:42:31;3.00;;;1.40;;
75512;SDS011;64090;49.770;18.760;2023-05-10T08:45:41;2.30;;;1.30;;
75512;SDS011;64090;49.770;18.760;2023-05-10T08:48:55;2.90;;;1.90;;
75512;SDS011;64090;49.770;18.760;2023-05-10T08:52:03;2.30;;;1.60;;
75512;SDS011;64090;49.770;18.760;2023-05-10T08:55:08;3.20;;;1.50;;
75512;SDS011;64090;49.770;18.760;2023-05-10T08:58:14;2.70;;;1.80;;
75512;SDS011;64090;49.770;18.760;2023-05-10T09:01:24;2.80;;;1.90;;
75512;SDS011;64090;49.770;18.760;2023-05-10T09:04:30;2.10;;;1.50;;
75512;SDS011;64090;49.770;18.760;2023-05-10T09:07:38;3.30;;;1.70;;
75512;SDS011;64090;49.770;18.760;2023-05-10T09:10:43;3.20;;;1.70;;
75512;SDS011;64090;49.770;18.760;2023-05-10T09:13:50;2.20;;;1.70;;
75512;SDS011;64090;49.770;18.760;2023-05-10T09:16:59;2.10;;;1.20;;
75512;SDS011;64090;49.770;18.760;2023-05-10T09:23:14;2.30;;;1.70;;
75512;SDS011;64090;49.770;18.760;2023-05-10T09:26:24;2.20;;;1.60;;
75512;SDS011;64090;49.770;18.760;2023-05-10T09:29:38;2.30;;;1.60;;
75512;SDS011;64090;49.770;18.760;2023-05-10T09:32:45;3.10;;;1.40;;
75512;SDS011;64090;49.770;18.760;2023-05-10T09:35:51;3.00;;;1.50;;
75512;SDS011;64090;49.770;18.760;2023-05-10T09:38:55;2.60;;;1.30;;
75512;SDS011;64090;49.770;18.760;2023-05-10T09:42:02;3.40;;;1.60;;
75512;SDS011;64090;49.770;18.760;2023-05-10T09:45:09;2.20;;;1.10;;
75512;SDS011;64090;49.770;18.760;2023-05-10T09:48:12;2.00;;;1.40;;
75512;SDS011;64090;49.770;18.760;2023-05-10T09:51:24;2.80;;;1.30;;
75512;SDS011;64090;49.770;18.760;2023-05-10T09:54:29;2.10;;;1.40;;
75512;SDS011;64090;49.770;18.760;2023-05-10T09:57:34;2.10;;;1.50;;
75512;SDS011;64090;49.770;18.760;2023-05-10T10:00:41;2.70;;;1.30;;
75512;SDS011;64090;49.770;18.760;2023-05-10T10:03:54;3.00;;;1.60;;
75512;SDS011;64090;49.770;18.760;2023-05-10T10:07:01;2.20;;;1.50;;
75512;SDS011;64090;49.770;18.760;2023-05-10T10:10:05;2.80;;;1.30;;
75512;SDS011;64090;49.770;18.760;2023-05-10T10:13:14;1.80;;;1.40;;
75512;SDS011;64090;49.770;18.760;2023-05-10T10:16:17;2.20;;;1.40;;
75512;SDS011;64090;49.770;18.760;2023-05-10T10:19:22;1.90;;;0.90;;
75512;SDS011;64090;49.770;18.760;2023-05-10T10:25:31;1.70;;;1.10;;
75512;SDS011;64090;49.770;18.760;2023-05-10T10:28:45;2.30;;;1.50;;
75512;SDS011;64090;49.770;18.760;2023-05-10T10:35:37;3.30;;;1.50;;
75512;SDS011;64090;49.770;18.760;2023-05-10T10:41:55;2.10;;;1.30;;
75512;SDS011;64090;49.770;18.760;2023-05-10T10:45:12;2.20;;;1.30;;
75512;SDS011;64090;49.770;18.760;2023-05-10T10:48:23;3.20;;;2.30;;
75512;SDS011;64090;49.770;18.760;2023-05-10T10:51:30;3.20;;;2.40;;
75512;SDS011;64090;49.770;18.760;2023-05-10T10:54:33;5.30;;;3.20;;
75512;SDS011;64090;49.770;18.760;2023-05-10T11:00:47;3.40;;;2.70;;
75512;SDS011;64090;49.770;18.760;2023-05-10T11:07:16;4.90;;;2.50;;
75512;SDS011;64090;49.770;18.760;2023-05-10T11:10:20;4.30;;;2.90;;
75512;SDS011;64090;49.770;18.760;2023-05-10T11:14:02;5.30;;;3.30;;
75512;SDS011;64090;49.770;18.760;2023-05-10T11:16:54;3.30;;;2.40;;
75512;SDS011;64090;49.770;18.760;2023-05-10T11:20:07;4.10;;;2.40;;
75512;SDS011;64090;49.770;18.760;2023-05-10T11:23:12;4.20;;;2.40;;
75512;SDS011;64090;49.770;18.760;2023-05-10T11:26:18;3.80;;;2.40;;
75512;SDS011;64090;49.770;18.760;2023-05-10T11:29:21;5.50;;;2.60;;
75512;SDS011;64090;49.770;18.760;2023-05-10T11:32:25;4.70;;;2.80;;
75512;SDS011;64090;49.770;18.760;2023-05-10T11:35:29;4.10;;;2.50;;
75512;SDS011;64090;49.770;18.760;2023-05-10T11:38:33;3.80;;;2.10;;
75512;SDS011;64090;49.770;18.760;2023-05-10T11:41:36;3.30;;;2.00;;
75512;SDS011;64090;49.770;18.760;2023-05-10T11:44:39;3.60;;;2.10;;
75512;SDS011;64090;49.770;18.760;2023-05-10T11:47:48;8.10;;;3.20;;
75512;SDS011;64090;49.770;18.760;2023-05-10T11:50:53;2.90;;;1.90;;
75512;SDS011;64090;49.770;18.760;2023-05-10T11:54:00;4.10;;;2.30;;
75512;SDS011;64090;49.770;18.760;2023-05-10T11:57:03;3.60;;;2.10;;
75512;SDS011;64090;49.770;18.760;2023-05-10T12:00:07;3.60;;;2.20;;
75512;SDS011;64090;49.770;18.760;2023-05-10T12:03:10;2.70;;;2.00;;
75512;SDS011;64090;49.770;18.760;2023-05-10T12:06:14;3.80;;;2.10;;
75512;SDS011;64090;49.770;18.760;2023-05-10T12:09:18;2.10;;;1.20;;
75512;SDS011;64090;49.770;18.760;2023-05-10T12:12:45;3.70;;;2.10;;
75512;SDS011;64090;49.770;18.760;2023-05-10T12:15:52;3.10;;;2.30;;
75512;SDS011;64090;49.770;18.760;2023-05-10T12:19:19;4.30;;;2.10;;
75512;SDS011;64090;49.770;18.760;2023-05-10T12:22:24;3.50;;;1.90;;
75512;SDS011;64090;49.770;18.760;2023-05-10T12:25:31;4.00;;;3.10;;
75512;SDS011;64090;49.770;18.760;2023-05-10T12:28:37;4.20;;;1.90;;
75512;SDS011;64090;49.770;18.760;2023-05-10T12:31:54;4.60;;;2.50;;
75512;SDS011;64090;49.770;18.760;2023-05-10T12:34:59;4.10;;;2.90;;
75512;SDS011;64090;49.770;18.760;2023-05-10T12:38:22;2.80;;;1.80;;
75512;SDS011;64090;49.770;18.760;2023-05-10T12:41:28;2.90;;;2.00;;
75512;SDS011;64090;49.770;18.760;2023-05-10T12:44:32;2.80;;;1.70;;
75512;SDS011;64090;49.770;18.760;2023-05-10T12:47:35;1.70;;;1.20;;
75512;SDS011;64090;49.770;18.760;2023-05-10T12:50:39;2.70;;;1.40;;
75512;SDS011;64090;49.770;18.760;2023-05-10T12:53:42;2.60;;;1.60;;
75512;SDS011;64090;49.770;18.760;2023-05-10T12:56:50;2.20;;;1.20;;
75512;SDS011;64090;49.770;18.760;2023-05-10T12:59:56;3.10;;;1.40;;
75512;SDS011;64090;49.770;18.760;2023-05-10T13:03:23;4.80;;;1.50;;
75512;SDS011;64090;49.770;18.760;2023-05-10T13:06:27;1.50;;;0.90;;
75512;SDS011;64090;49.770;18.760;2023-05-10T13:09:31;1.40;;;0.80;;
75512;SDS011;64090;49.770;18.760;2023-05-10T13:12:35;1.30;;;0.80;;
75512;SDS011;64090;49.770;18.760;2023-05-10T13:15:42;1.90;;;1.10;;
75512;SDS011;64090;49.770;18.760;2023-05-10T13:18:45;2.90;;;0.90;;
75512;SDS011;64090;49.770;18.760;2023-05-10T13:21:49;1.60;;;1.00;;
75512;SDS011;64090;49.770;18.760;2023-05-10T13:24:53;1.30;;;0.90;;
75512;SDS011;64090;49.770;18.760;2023-05-10T13:27:56;1.80;;;1.10;;
75512;SDS011;64090;49.770;18.760;2023-05-10T13:30:59;1.40;;;0.90;;
75512;SDS011;64090;49.770;18.760;2023-05-10T13:34:03;1.50;;;0.80;;
75512;SDS011;64090;49.770;18.760;2023-05-10T13:37:06;1.50;;;0.90;;
75512;SDS011;64090;49.770;18.760;2023-05-10T13:40:09;1.30;;;1.00;;
75512;SDS011;64090;49.770;18.760;2023-05-10T13:43:18;1.70;;;1.00;;
75512;SDS011;64090;49.770;18.760;2023-05-10T13:46:22;2.00;;;1.00;;
75512;SDS011;64090;49.770;18.760;2023-05-10T13:49:26;2.00;;;1.30;;
75512;SDS011;64090;49.770;18.760;2023-05-10T13:52:29;1.70;;;1.10;;
75512;SDS011;64090;49.770;18.760;2023-05-10T13:55:33;1.50;;;0.90;;
75512;SDS011;64090;49.770;18.760;2023-05-10T13:58:37;2.70;;;1.30;;
75512;SDS011;64090;49.770;18.760;2023-05-10T14:01:40;1.90;;;1.10;;
75512;SDS011;64090;49.770;18.760;2023-05-10T14:04:45;2.90;;;1.20;;
75512;SDS011;64090;49.770;18.760;2023-05-10T14:07:49;1.60;;;1.00;;
75512;SDS011;64090;49.770;18.760;2023-05-10T14:10:53;2.40;;;1.10;;
75512;SDS011;64090;49.770;18.760;2023-05-10T14:14:00;1.50;;;0.90;;
75512;SDS011;64090;49.770;18.760;2023-05-10T14:17:04;1.30;;;0.80;;
75512;SDS011;64090;49.770;18.760;2023-05-10T14:20:14;2.20;;;1.30;;
75512;SDS011;64090;49.770;18.760;2023-05-10T14:23:17;1.80;;;0.90;;
75512;SDS011;64090;49.770;18.760;2023-05-10T14:26:22;1.50;;;0.90;;
75512;SDS011;64090;49.770;18.760;2023-05-10T14:29:25;1.90;;;1.00;;
75512;SDS011;64090;49.770;18.760;2023-05-10T14:32:28;1.70;;;1.10;;
75512;SDS011;64090;49.770;18.760;2023-05-10T14:35:32;1.70;;;1.20;;
75512;SDS011;64090;49.770;18.760;2023-05-10T14:38:35;3.30;;;1.70;;
75512;SDS011;64090;49.770;18.760;2023-05-10T14:41:39;1.80;;;1.40;;
75512;SDS011;64090;49.770;18.760;2023-05-10T14:44:45;1.70;;;1.00;;
75512;SDS011;64090;49.770;18.760;2023-05-10T14:47:49;2.20;;;1.10;;
75512;SDS011;64090;49.770;18.760;2023-05-10T14:50:53;1.40;;;0.90;;
75512;SDS011;64090;49.770;18.760;2023-05-10T14:53:56;2.70;;;1.00;;
75512;SDS011;64090;49.770;18.760;2023-05-10T14:57:00;2.50;;;1.00;;
75512;SDS011;64090;49.770;18.760;2023-05-10T15:00:14;1.80;;;1.10;;
75512;SDS011;64090;49.770;18.760;2023-05-10T15:03:24;2.50;;;1.00;;
75512;SDS011;64090;49.770;18.760;2023-05-10T15:06:32;1.80;;;1.30;;
75512;SDS011;64090;49.770;18.760;2023-05-10T15:09:44;1.50;;;1.00;;
75512;SDS011;64090;49.770;18.760;2023-05-10T15:12:50;1.60;;;0.90;;
75512;SDS011;64090;49.770;18.760;2023-05-10T15:15:57;1.60;;;1.00;;
75512;SDS011;64090;49.770;18.760;2023-05-10T15:19:06;2.00;;;1.50;;
75512;SDS011;64090;49.770;18.760;2023-05-10T15:22:10;3.30;;;1.30;;
75512;SDS011;64090;49.770;18.760;2023-05-10T15:25:20;2.10;;;1.10;;
75512;SDS011;64090;49.770;18.760;2023-05-10T15:28:25;1.60;;;1.20;;
75512;SDS011;64090;49.770;18.760;2023-05-10T15:31:30;2.20;;;1.00;;
75512;SDS011;64090;49.770;18.760;2023-05-10T15:34:54;3.60;;;2.10;;
75512;SDS011;64090;49.770;18.760;2023-05-10T15:38:03;2.00;;;1.30;;
75512;SDS011;64090;49.770;18.760;2023-05-10T15:41:07;2.40;;;1.50;;
75512;SDS011;64090;49.770;18.760;2023-05-10T15:44:12;4.30;;;1.60;;
75512;SDS011;64090;49.770;18.760;2023-05-10T15:47:15;4.30;;;2.10;;
75512;SDS011;64090;49.770;18.760;2023-05-10T15:50:19;3.50;;;2.00;;
75512;SDS011;64090;49.770;18.760;2023-05-10T15:53:25;3.40;;;2.00;;
75512;SDS011;64090;49.770;18.760;2023-05-10T15:56:29;4.30;;;2.60;;
75512;SDS011;64090;49.770;18.760;2023-05-10T16:02:51;3.40;;;2.00;;
75512;SDS011;64090;49.770;18.760;2023-05-10T16:05:56;4.50;;;3.10;;
75512;SDS011;64090;49.770;18.760;2023-05-10T16:09:02;6.40;;;3.60;;
75512;SDS011;64090;49.770;18.760;2023-05-10T16:12:06;6.10;;;3.00;;
75512;SDS011;64090;49.770;18.760;2023-05-10T16:15:14;6.10;;;3.20;;
75512;SDS011;64090;49.770;18.760;2023-05-10T16:18:37;7.30;;;3.10;;
75512;SDS011;64090;49.770;18.760;2023-05-10T16:21:41;5.00;;;3.50;;
75512;SDS011;64090;49.770;18.760;2023-05-10T16:24:49;4.90;;;2.80;;
75512;SDS011;64090;49.770;18.760;2023-05-10T16:27:55;4.80;;;2.80;;
75512;SDS011;64090;49.770;18.760;2023-05-10T16:31:05;4.30;;;2.90;;
75512;SDS011;64090;49.770;18.760;2023-05-10T16:34:14;3.60;;;2.50;;
75512;SDS011;64090;49.770;18.760;2023-05-10T16:37:26;4.10;;;2.60;;
75512;SDS011;64090;49.770;18.760;2023-05-10T16:40:30;4.00;;;2.50;;
75512;SDS011;64090;49.770;18.760;2023-05-10T16:43:37;4.20;;;2.70;;
75512;SDS011;64090;49.770;18.760;2023-05-10T16:46:43;5.00;;;3.00;;
75512;SDS011;64090;49.770;18.760;2023-05-10T16:49:48;5.40;;;2.90;;
75512;SDS011;64090;49.770;18.760;2023-05-10T16:52:55;4.90;;;2.70;;
75512;SDS011;64090;49.770;18.760;2023-05-10T16:56:05;6.20;;;3.00;;
75512;SDS011;64090;49.770;18.760;2023-05-10T16:59:30;3.20;;;1.30;;
75512;SDS011;64090;49.770;18.760;2023-05-10T17:02:47;2.90;;;1.30;;
75512;SDS011;64090;49.770;18.760;2023-05-10T17:05:51;2.60;;;1.40;;
75512;SDS011;64090;49.770;18.760;2023-05-10T17:08:55;5.20;;;1.60;;
75512;SDS011;64090;49.770;18.760;2023-05-10T17:12:00;3.30;;;1.50;;
75512;SDS011;64090;49.770;18.760;2023-05-10T17:15:05;4.60;;;1.80;;
75512;SDS011;64090;49.770;18.760;2023-05-10T17:18:15;5.20;;;2.00;;
75512;SDS011;64090;49.770;18.760;2023-05-10T17:21:21;4.20;;;2.20;;
75512;SDS011;64090;49.770;18.760;2023-05-10T17:24:25;4.90;;;2.40;;
75512;SDS011;64090;49.770;18.760;2023-05-10T17:30:42;4.10;;;2.00;;
75512;SDS011;64090;49.770;18.760;2023-05-10T17:33:47;3.30;;;1.80;;
75512;SDS011;64090;49.770;18.760;2023-05-10T17:36:51;3.60;;;1.60;;
75512;SDS011;64090;49.770;18.760;2023-05-10T17:39:58;2.80;;;1.80;;
75512;SDS011;64090;49.770;18.760;2023-05-10T17:43:02;6.20;;;2.50;;
75512;SDS011;64090;49.770;18.760;2023-05-10T17:46:15;3.50;;;1.70;;
75512;SDS011;64090;49.770;18.760;2023-05-10T17:49:21;4.50;;;2.10;;
75512;SDS011;64090;49.770;18.760;2023-05-10T17:52:25;3.80;;;1.80;;
75512;SDS011;64090;49.770;18.760;2023-05-10T17:55:34;3.40;;;1.90;;
75512;SDS011;64090;49.770;18.760;2023-05-10T17:58:47;2.10;;;1.30;;
75512;SDS011;64090;49.770;18.760;2023-05-10T18:01:53;2.60;;;1.40;;
75512;SDS011;64090;49.770;18.760;2023-05-10T18:05:18;3.40;;;1.80;;
75512;SDS011;64090;49.770;18.760;2023-05-10T18:08:25;3.00;;;1.90;;
75512;SDS011;64090;49.770;18.760;2023-05-10T18:11:46;3.80;;;1.90;;
75512;SDS011;64090;49.770;18.760;2023-05-10T18:14:57;5.20;;;2.30;;
75512;SDS011;64090;49.770;18.760;2023-05-10T18:18:16;4.20;;;2.40;;
75512;SDS011;64090;49.770;18.760;2023-05-10T18:21:34;3.50;;;2.00;;
75512;SDS011;64090;49.770;18.760;2023-05-10T18:24:40;3.40;;;2.00;;
75512;SDS011;64090;49.770;18.760;2023-05-10T18:27:48;4.40;;;1.90;;
75512;SDS011;64090;49.770;18.760;2023-05-10T18:30:56;4.70;;;2.40;;
75512;SDS011;64090;49.770;18.760;2023-05-10T18:34:03;4.90;;;2.50;;
75512;SDS011;64090;49.770;18.760;2023-05-10T18:37:15;4.20;;;2.80;;
75512;SDS011;64090;49.770;18.760;2023-05-10T18:40:27;4.40;;;2.50;;
75512;SDS011;64090;49.770;18.760;2023-05-10T18:44:04;4.60;;;3.10;;
75512;SDS011;64090;49.770;18.760;2023-05-10T18:47:41;5.10;;;2.80;;
75512;SDS011;64090;49.770;18.760;2023-05-10T18:50:48;4.80;;;2.50;;
75512;SDS011;64090;49.770;18.760;2023-05-10T18:53:52;4.30;;;2.80;;
75512;SDS011;64090;49.770;18.760;2023-05-10T18:57:12;4.90;;;2.90;;
75512;SDS011;64090;49.770;18.760;2023-05-10T19:00:17;5.30;;;3.00;;
75512;SDS011;64090;49.770;18.760;2023-05-10T19:03:27;4.40;;;3.30;;
75512;SDS011;64090;49.770;18.760;2023-05-10T19:06:34;11.50;;;5.10;;
75512;SDS011;64090;49.770;18.760;2023-05-10T19:09:40;17.20;;;6.50;;
75512;SDS011;64090;49.770;18.760;2023-05-10T19:12:43;11.00;;;5.00;;